Time;durP1;ratioP1;P1;durP2;ratioP2;P2;SDS_P1;SDS_P2;PMS_P1;PMS_P2;Temp;Humidity;BMP_temperature;BMP_pressure;BME280_temperature;BME280_humidity;BME280_pressure;Samples;Min_cycle;Max_cycle;Signal;HPM_P1;HPM_P2
2021/03/08 00:00:30;;;;;;;63.00;28.30;;;3.20;99.90;;;;;;5049156;28;20434;-44
2021/03/08 00:02:57;;;;;;;57.75;28.25;;;3.20;99.90;;;;;;5047684;28;20025;-45
2021/03/08 00:05:22;;;;;;;60.97;27.98;;;3.20;99.90;;;;;;5048526;28;20032;-44
2021/03/08 00:07:48;;;;;;;57.80;28.17;;;3.20;99.90;;;;;;5049196;28;20021;-45
2021/03/08 00:10:16;;;;;;;69.03;28.75;;;3.20;99.90;;;;;;5047474;28;20534;-46
2021/03/08 00:12:43;;;;;;;56.80;28.30;;;3.20;99.90;;;;;;5049260;28;20068;-45
2021/03/08 00:15:09;;;;;;;56.58;30.15;;;3.20;99.90;;;;;;5048275;28;20029;-45
2021/03/08 00:17:35;;;;;;;58.63;30.50;;;3.20;99.90;;;;;;5048629;28;20029;-44
2021/03/08 00:20:00;;;;;;;64.43;30.20;;;3.30;99.90;;;;;;5048922;28;20420;-45
2021/03/08 00:22:26;;;;;;;63.05;28.40;;;3.30;99.90;;;;;;5048914;28;20033;-45
2021/03/08 00:24:51;;;;;;;60.28;28.58;;;3.30;99.90;;;;;;5048088;28;20071;-44
2021/03/08 00:27:17;;;;;;;57.67;28.08;;;3.30;99.90;;;;;;5048721;28;20360;-45
2021/03/08 00:29:42;;;;;;;64.07;25.65;;;3.30;99.90;;;;;;5047354;28;20029;-45
2021/03/08 00:32:08;;;;;;;56.20;25.75;;;3.30;99.90;;;;;;5047402;28;20383;-47
2021/03/08 00:34:35;;;;;;;58.53;24.60;;;3.30;99.90;;;;;;5048837;28;20035;-46
2021/03/08 00:37:01;;;;;;;59.13;26.95;;;3.30;99.90;;;;;;5048115;28;20060;-46
2021/03/08 00:39:27;;;;;;;48.53;24.27;;;3.30;99.90;;;;;;5048634;28;20060;-46
2021/03/08 00:41:52;;;;;;;45.60;21.13;;;3.30;99.90;;;;;;5048890;28;20060;-46
2021/03/08 00:44:18;;;;;;;42.45;20.38;;;3.30;99.90;;;;;;5047646;28;20601;-45
2021/03/08 00:46:43;;;;;;;39.85;18.38;;;3.30;99.90;;;;;;5048035;28;20430;-47
2021/03/08 00:49:09;;;;;;;46.47;18.45;;;3.30;99.90;;;;;;5046628;28;20168;-46
2021/03/08 00:51:34;;;;;;;35.80;16.77;;;3.20;99.90;;;;;;5048674;28;20025;-45
2021/03/08 00:53:59;;;;;;;35.95;17.02;;;3.20;99.90;;;;;;5048529;28;20371;-45
2021/03/08 00:56:25;;;;;;;39.92;16.02;;;3.20;99.90;;;;;;5047900;28;20032;-45
2021/03/08 00:58:50;;;;;;;38.33;16.55;;;3.10;99.90;;;;;;5048666;28;20029;-46
2021/03/08 01:01:16;;;;;;;35.30;14.85;;;3.10;99.90;;;;;;5047989;28;20040;-45
2021/03/08 01:03:41;;;;;;;35.28;15.18;;;3.10;99.90;;;;;;5047135;28;20029;-45
2021/03/08 01:06:07;;;;;;;38.70;15.50;;;3.10;99.90;;;;;;5047802;28;20056;-44
2021/03/08 01:08:32;;;;;;;39.45;14.70;;;3.10;99.90;;;;;;5047087;28;20017;-45
2021/03/08 01:10:58;;;;;;;34.20;14.15;;;3.10;99.90;;;;;;5048174;28;20029;-46
2021/03/08 01:13:24;;;;;;;27.45;13.73;;;3.10;99.90;;;;;;5048246;28;20055;-46
2021/03/08 01:15:51;;;;;;;25.38;12.60;;;3.00;99.90;;;;;;5047628;28;20021;-44
2021/03/08 01:18:17;;;;;;;34.28;12.60;;;3.00;99.90;;;;;;5046551;28;20395;-44
2021/03/08 01:20:43;;;;;;;27.88;12.90;;;3.00;99.90;;;;;;5048230;28;20029;-45
2021/03/08 01:23:08;;;;;;;28.00;13.10;;;2.90;99.90;;;;;;5047939;28;20074;-46
2021/03/08 01:25:35;;;;;;;30.83;11.45;;;2.80;99.90;;;;;;5047554;28;20475;-45
2021/03/08 01:28:00;;;;;;;22.13;11.70;;;2.80;99.90;;;;;;5048457;28;20017;-48
2021/03/08 01:30:30;;;;;;;35.58;10.98;;;2.80;99.90;;;;;;5048075;28;20068;-45
2021/03/08 01:32:56;;;;;;;30.27;10.33;;;2.80;99.90;;;;;;5048073;28;20043;-48
2021/03/08 01:35:22;;;;;;;34.28;11.13;;;2.80;99.90;;;;;;5047302;28;20275;-45
2021/03/08 01:37:48;;;;;;;24.75;9.25;;;2.80;99.90;;;;;;5047834;28;20451;-46
2021/03/08 01:40:16;;;;;;;24.15;10.60;;;2.70;99.90;;;;;;5048418;28;20581;-46
2021/03/08 01:42:42;;;;;;;22.10;8.93;;;2.70;99.90;;;;;;5047958;28;20051;-49
2021/03/08 01:45:14;;;;;;;22.92;9.32;;;2.70;99.90;;;;;;5047547;28;20021;-46
2021/03/08 01:47:42;;;;;;;24.65;9.65;;;2.60;99.90;;;;;;5047851;28;20498;-48
2021/03/08 01:50:13;;;;;;;26.95;11.05;;;2.50;99.90;;;;;;5048023;28;20108;-46
2021/03/08 01:52:39;;;;;;;32.75;11.02;;;2.40;99.90;;;;;;5048257;28;20382;-46
2021/03/08 01:55:05;;;;;;;24.70;11.02;;;2.40;99.90;;;;;;5047825;28;20033;-47
2021/03/08 01:57:31;;;;;;;26.60;9.25;;;2.30;99.90;;;;;;5048214;28;20033;-46
2021/03/08 01:59:57;;;;;;;24.33;9.20;;;2.30;99.90;;;;;;5048884;28;20035;-46
2021/03/08 02:02:23;;;;;;;29.25;9.75;;;2.30;99.90;;;;;;5051405;28;20021;-47
2021/03/08 02:04:48;;;;;;;23.50;8.07;;;2.30;99.90;;;;;;5051431;28;20029;-46
2021/03/08 02:07:14;;;;;;;22.05;6.90;;;2.20;99.90;;;;;;5049919;28;20032;-45
2021/03/08 02:09:39;;;;;;;27.10;7.90;;;2.20;99.90;;;;;;5050336;28;20031;-46
2021/03/08 02:12:40;;;;;;;24.75;8.68;;;2.20;99.90;;;;;;5051378;28;20033;-45
2021/03/08 02:15:15;;;;;;;;;;;2.10;99.90;;;;;;5050047;28;20060;-46
2021/03/08 02:17:50;;;;;;;21.10;7.10;;;2.10;99.90;;;;;;5051286;28;19911;-45
2021/03/08 02:20:37;;;;;;;28.60;7.25;;;2.00;99.90;;;;;;5051317;28;20025;-45
2021/03/08 02:23:40;;;;;;;16.48;7.15;;;2.00;99.90;;;;;;5050034;28;20282;-45
2021/03/08 02:26:06;;;;;;;23.90;7.65;;;2.00;99.90;;;;;;5050888;28;20099;-45
2021/03/08 02:28:55;;;;;;;32.63;9.05;;;2.00;99.90;;;;;;5051194;28;20101;-45
2021/03/08 02:31:22;;;;;;;23.08;8.48;;;2.00;99.90;;;;;;5050758;28;20032;-45
2021/03/08 02:34:08;;;;;;;21.77;7.70;;;1.90;99.90;;;;;;5051086;28;20120;-48
2021/03/08 02:36:43;;;;;;;24.33;8.10;;;1.90;99.90;;;;;;5050647;28;20414;-46
2021/03/08 02:39:17;;;;;;;21.90;7.75;;;1.80;99.90;;;;;;5051203;28;20573;-45
2021/03/08 02:41:46;;;;;;;30.88;8.25;;;1.80;99.90;;;;;;5051098;28;20035;-45
2021/03/08 02:44:14;;;;;;;23.33;8.15;;;1.80;99.90;;;;;;5049663;28;20470;-48
2021/03/08 02:46:43;;;;;;;23.38;7.97;;;1.70;99.90;;;;;;5048502;28;20017;-46
2021/03/08 02:49:21;;;;;;;24.25;8.10;;;1.70;99.90;;;;;;5049348;28;20025;-46
2021/03/08 02:51:52;;;;;;;25.52;8.50;;;1.70;99.90;;;;;;5050723;28;20029;-45
2021/03/08 02:54:20;;;;;;;24.42;7.95;;;1.60;99.90;;;;;;5050610;28;20021;-44
2021/03/08 02:56:48;;;;;;;24.95;7.43;;;1.60;99.90;;;;;;5050401;28;20470;-45
2021/03/08 02:59:14;;;;;;;20.48;7.60;;;1.50;99.90;;;;;;5050437;28;20029;-46
2021/03/08 03:01:42;;;;;;;22.63;7.85;;;1.50;99.90;;;;;;5050248;28;20021;-45
2021/03/08 03:04:09;;;;;;;24.33;7.45;;;1.50;99.90;;;;;;5050713;28;20063;-44
2021/03/08 03:06:36;;;;;;;23.00;7.75;;;1.40;99.90;;;;;;5050094;28;20032;-46
2021/03/08 03:09:11;;;;;;;23.60;7.72;;;1.40;99.90;;;;;;5050611;28;20433;-44
2021/03/08 03:11:43;;;;;;;31.63;7.63;;;1.40;99.90;;;;;;5049255;28;20036;-45
2021/03/08 03:14:10;;;;;;;22.33;8.18;;;1.30;99.90;;;;;;5050096;28;20021;-45
2021/03/08 03:16:38;;;;;;;25.27;8.30;;;1.30;99.90;;;;;;5049669;28;20032;-45
2021/03/08 03:19:04;;;;;;;22.70;8.10;;;1.30;99.90;;;;;;5050229;28;20025;-45
2021/03/08 03:21:33;;;;;;;18.63;6.60;;;1.20;99.90;;;;;;5050173;28;20410;-45
2021/03/08 03:24:00;;;;;;;31.58;7.50;;;1.20;99.90;;;;;;5049855;28;20017;-44
2021/03/08 03:26:28;;;;;;;23.70;8.23;;;1.20;99.90;;;;;;5049488;28;20024;-44
2021/03/08 03:28:55;;;;;;;29.63;7.60;;;1.20;99.90;;;;;;5050062;28;20043;-45
2021/03/08 03:31:22;;;;;;;22.77;7.93;;;1.10;99.90;;;;;;5049280;28;20032;-46
2021/03/08 03:33:49;;;;;;;26.30;8.13;;;1.10;99.90;;;;;;5048352;28;20151;-45
2021/03/08 03:36:14;;;;;;;22.98;7.80;;;1.10;99.90;;;;;;5047576;28;20027;-44
2021/03/08 03:38:41;;;;;;;17.95;6.90;;;1.00;99.90;;;;;;5049155;28;20029;-45
2021/03/08 03:41:07;;;;;;;23.00;7.10;;;1.00;99.90;;;;;;5049965;28;20278;-44
2021/03/08 03:43:33;;;;;;;25.88;10.60;;;1.00;99.90;;;;;;5049883;28;20048;-45
2021/03/08 03:46:03;;;;;;;24.20;7.72;;;1.00;99.90;;;;;;5049575;28;20017;-45
2021/03/08 03:48:29;;;;;;;25.50;7.67;;;0.90;99.90;;;;;;5048406;28;20057;-45
2021/03/08 03:50:55;;;;;;;24.38;7.63;;;0.90;99.90;;;;;;5049744;28;20078;-44
2021/03/08 03:53:20;;;;;;;24.45;6.97;;;0.90;99.90;;;;;;5049476;28;20436;-44
2021/03/08 03:55:46;;;;;;;19.13;6.63;;;0.90;99.90;;;;;;5049274;28;20409;-45
2021/03/08 03:58:29;;;;;;;24.92;7.88;;;0.80;99.90;;;;;;5049397;28;20106;-44
2021/03/08 04:01:08;;;;;;;19.30;7.40;;;0.80;99.90;;;;;;5049161;28;20029;-44
2021/03/08 04:03:49;;;;;;;29.25;7.68;;;0.70;99.90;;;;;;5048277;28;20029;-45
2021/03/08 04:06:15;;;;;;;;;;;0.70;99.90;;;;;;5048922;28;20092;-44
2021/03/08 04:08:44;;;;;;;20.15;6.95;;;0.70;99.90;;;;;;5049184;28;19904;-45
2021/03/08 04:11:13;;;;;;;27.17;7.55;;;0.70;99.90;;;;;;5050702;28;20097;-44
2021/03/08 04:13:40;;;;;;;28.33;8.45;;;0.70;99.90;;;;;;5057998;28;20052;-45
2021/03/08 04:16:07;;;;;;;30.15;7.93;;;0.70;99.90;;;;;;5057813;28;20039;-44
2021/03/08 04:18:34;;;;;;;17.55;6.03;;;0.60;99.90;;;;;;5057720;28;20020;-45
2021/03/08 04:21:00;;;;;;;19.85;6.70;;;0.60;99.90;;;;;;5057916;28;20505;-45
2021/03/08 04:23:29;;;;;;;24.05;7.75;;;0.60;99.90;;;;;;5059048;28;20120;-45
2021/03/08 04:25:54;;;;;;;27.35;7.28;;;0.60;99.90;;;;;;5058816;28;20016;-48
2021/03/08 04:28:22;;;;;;;17.55;6.45;;;0.60;99.90;;;;;;5058097;28;20036;-47
2021/03/08 04:30:48;;;;;;;22.10;6.68;;;0.60;99.90;;;;;;5055863;28;20033;-45
2021/03/08 04:33:16;;;;;;;16.95;6.45;;;0.60;99.90;;;;;;5056302;28;20053;-46
2021/03/08 04:35:43;;;;;;;17.27;5.88;;;0.60;99.90;;;;;;5054790;28;20044;-44
2021/03/08 04:38:09;;;;;;;14.88;5.30;;;0.60;99.90;;;;;;5059010;28;20021;-46
2021/03/08 04:40:35;;;;;;;15.88;6.60;;;0.60;99.90;;;;;;5057514;28;20206;-46
2021/03/08 04:43:05;;;;;;;14.68;5.78;;;0.50;99.90;;;;;;5060181;28;20159;-46
2021/03/08 04:45:31;;;;;;;16.05;5.93;;;0.50;99.90;;;;;;5056981;28;20029;-46
2021/03/08 04:48:01;;;;;;;12.75;5.70;;;0.50;99.90;;;;;;5057773;28;20182;-45
2021/03/08 04:50:27;;;;;;;13.75;5.85;;;0.50;99.90;;;;;;5059090;28;20025;-44
2021/03/08 04:52:53;;;;;;;20.02;5.85;;;0.50;99.90;;;;;;5057808;28;20075;-44
2021/03/08 04:55:23;;;;;;;20.60;6.60;;;0.50;99.90;;;;;;5058623;28;20033;-44
2021/03/08 04:57:49;;;;;;;13.82;5.82;;;0.40;99.90;;;;;;5057629;28;20024;-45
2021/03/08 05:00:18;;;;;;;16.15;6.40;;;0.40;99.90;;;;;;5053438;28;20024;-45
2021/03/08 05:02:44;;;;;;;14.57;5.43;;;0.40;99.90;;;;;;5052773;28;20037;-44
2021/03/08 05:05:11;;;;;;;17.75;6.03;;;0.40;99.90;;;;;;5047566;28;20394;-45
2021/03/08 05:07:41;;;;;;;18.17;7.70;;;0.30;99.90;;;;;;5047037;28;20041;-45
2021/03/08 05:10:15;;;;;;;13.82;5.97;;;0.30;99.90;;;;;;5046925;28;20021;-44
2021/03/08 05:12:41;;;;;;;20.83;6.90;;;0.30;99.90;;;;;;5048379;28;20029;-45
2021/03/08 05:15:09;;;;;;;16.05;7.15;;;0.30;99.90;;;;;;5047885;28;20248;-44
2021/03/08 05:17:37;;;;;;;16.48;6.38;;;0.30;99.90;;;;;;5048020;28;20044;-44
2021/03/08 05:20:05;;;;;;;16.33;5.60;;;0.30;99.90;;;;;;5046933;28;20028;-45
2021/03/08 05:22:35;;;;;;;16.55;6.68;;;0.30;99.90;;;;;;5048091;28;20025;-45
2021/03/08 05:25:02;;;;;;;16.33;7.28;;;0.20;99.90;;;;;;5047755;28;20071;-45
2021/03/08 05:27:28;;;;;;;15.13;6.25;;;0.20;99.90;;;;;;5048279;28;20128;-46
2021/03/08 05:29:54;;;;;;;16.58;6.38;;;0.20;99.90;;;;;;5048235;28;20033;-44
2021/03/08 05:32:31;;;;;;;19.90;7.18;;;0.10;99.90;;;;;;5046472;28;20044;-45
2021/03/08 05:34:59;;;;;;;19.85;7.20;;;0.20;99.90;;;;;;5049258;28;20159;-45
2021/03/08 05:37:25;;;;;;;24.13;6.95;;;0.20;99.90;;;;;;5062530;28;20034;-46
2021/03/08 05:39:51;;;;;;;16.90;6.70;;;0.10;99.90;;;;;;5062764;28;20016;-45
2021/03/08 05:42:18;;;;;;;23.13;6.07;;;0.00;99.90;;;;;;5059166;28;20041;-45
2021/03/08 05:45:04;;;;;;;12.73;5.70;;;0.00;99.90;;;;;;5060929;28;20334;-45
2021/03/08 05:47:36;;;;;;;14.82;6.07;;;0.00;99.90;;;;;;5062198;28;20388;-44
2021/03/08 05:50:05;;;;;;;14.60;6.68;;;0.00;99.90;;;;;;5061655;28;20029;-45
2021/03/08 05:53:05;;;;;;;17.27;5.55;;;0.00;99.90;;;;;;5061465;28;20033;-45
2021/03/08 05:55:52;;;;;;;11.00;5.43;;;-0.10;99.90;;;;;;5058843;28;20036;-44
2021/03/08 05:58:42;;;;;;;14.77;6.30;;;-0.10;99.90;;;;;;5051591;28;20267;-45
2021/03/08 06:01:34;;;;;;;18.27;6.30;;;0.00;99.90;;;;;;5045577;28;20590;-44
2021/03/08 06:04:33;;;;;;;22.83;9.27;;;0.00;99.90;;;;;;5043661;28;20582;-45
2021/03/08 06:07:32;;;;;;;14.43;5.75;;;0.00;99.90;;;;;;5049772;28;20124;-45
2021/03/08 06:10:05;;;;;;;19.90;6.70;;;-0.10;99.90;;;;;;5051129;28;20390;-46
2021/03/08 06:12:41;;;;;;;22.42;7.47;;;-0.10;99.90;;;;;;5051225;28;20013;-44
2021/03/08 06:15:13;;;;;;;16.42;7.03;;;-0.10;99.90;;;;;;5056102;28;20029;-45
2021/03/08 06:17:39;;;;;;;17.65;6.90;;;-0.10;99.90;;;;;;5059875;28;20382;-45
2021/03/08 06:20:07;;;;;;;22.08;7.88;;;-0.10;99.90;;;;;;5064326;28;20017;-46
2021/03/08 06:22:34;;;;;;;16.80;6.78;;;0.00;99.90;;;;;;5058364;28;20028;-45
2021/03/08 06:25:01;;;;;;;16.58;6.20;;;0.00;99.90;;;;;;5053097;28;20037;-45
2021/03/08 06:27:29;;;;;;;16.67;5.82;;;-0.10;99.90;;;;;;5056845;28;20159;-45
2021/03/08 06:29:56;;;;;;;15.90;6.45;;;0.00;99.90;;;;;;5058177;28;20026;-46
2021/03/08 06:32:23;;;;;;;17.85;6.75;;;0.00;99.90;;;;;;5057182;28;20413;-46
2021/03/08 06:34:49;;;;;;;18.00;6.72;;;0.00;99.90;;;;;;5070329;28;20063;-46
2021/03/08 06:37:15;;;;;;;19.77;7.18;;;0.00;99.90;;;;;;5070478;28;20052;-47
2021/03/08 06:39:45;;;;;;;17.80;6.80;;;0.00;99.90;;;;;;5064984;28;20020;-46
2021/03/08 06:42:14;;;;;;;19.30;7.80;;;0.00;99.90;;;;;;5065751;28;20521;-46
2021/03/08 06:44:40;;;;;;;17.27;7.47;;;0.00;99.90;;;;;;5057101;28;20037;-46
2021/03/08 06:47:08;;;;;;;20.63;8.10;;;0.00;99.90;;;;;;5068157;28;20028;-46
2021/03/08 06:49:34;;;;;;;18.77;6.78;;;0.00;99.90;;;;;;5068773;28;20111;-46
2021/03/08 06:52:01;;;;;;;15.90;6.25;;;0.00;99.90;;;;;;5069955;28;20305;-47
2021/03/08 06:54:29;;;;;;;19.67;8.32;;;0.10;99.90;;;;;;5056362;28;20454;-46
2021/03/08 06:56:55;;;;;;;20.10;6.68;;;0.10;99.90;;;;;;5058728;28;20160;-46
2021/03/08 06:59:20;;;;;;;18.52;7.03;;;0.10;99.90;;;;;;5065187;28;20028;-46
2021/03/08 07:01:46;;;;;;;18.98;6.63;;;0.10;99.90;;;;;;5060827;28;20025;-46
2021/03/08 07:04:20;;;;;;;23.88;8.40;;;0.20;99.90;;;;;;5053274;28;20069;-46
2021/03/08 07:07:13;;;;;;;19.13;6.18;;;0.20;99.90;;;;;;5063482;28;20020;-49
2021/03/08 07:09:52;;;;;;;14.90;5.55;;;0.20;99.90;;;;;;5066534;28;20024;-47
2021/03/08 07:12:20;;;;;;;11.80;5.15;;;0.30;99.90;;;;;;5065080;28;20037;-48
2021/03/08 07:14:59;;;;;;;11.52;5.40;;;0.30;99.90;;;;;;5049961;28;20560;-47
2021/03/08 07:17:36;;;;;;;10.32;4.20;;;0.30;99.90;;;;;;5049798;28;20043;-47
2021/03/08 07:20:04;;;;;;;12.73;4.20;;;0.40;99.90;;;;;;5050995;28;20033;-46
2021/03/08 07:22:38;;;;;;;17.08;5.07;;;0.40;99.90;;;;;;5049218;28;20029;-46
2021/03/08 07:25:06;;;;;;;11.93;4.13;;;0.40;99.90;;;;;;5047792;28;20517;-47
2021/03/08 07:27:43;;;;;;;15.77;4.60;;;0.40;99.90;;;;;;5049276;28;20033;-47
2021/03/08 07:30:11;;;;;;;12.85;4.15;;;0.50;99.90;;;;;;5057038;28;20039;-46
2021/03/08 07:32:50;;;;;;;14.23;4.50;;;0.50;99.90;;;;;;5067357;28;20036;-49
2021/03/08 07:35:15;;;;;;;11.30;3.90;;;0.50;99.90;;;;;;5050166;28;20299;-46
2021/03/08 07:37:47;;;;;;;8.80;4.32;;;0.50;99.90;;;;;;5048164;28;20083;-47
2021/03/08 07:40:25;;;;;;;12.38;4.65;;;0.50;99.90;;;;;;5049207;28;20029;-46
2021/03/08 07:42:51;;;;;;;16.23;5.07;;;0.60;99.90;;;;;;5048670;28;20020;-45
2021/03/08 07:45:18;;;;;;;7.90;3.90;;;0.60;99.90;;;;;;5065688;28;20032;-46
2021/03/08 07:47:43;;;;;;;16.42;4.53;;;0.60;99.90;;;;;;5052934;28;20135;-45
2021/03/08 07:50:26;;;;;;;10.73;4.30;;;0.70;99.90;;;;;;5056854;28;20116;-46
2021/03/08 07:52:54;;;;;;;9.30;4.78;;;0.70;99.90;;;;;;5059782;28;20074;-45
2021/03/08 07:55:20;;;;;;;10.65;3.90;;;0.80;99.90;;;;;;5055244;28;20021;-46
2021/03/08 07:57:46;;;;;;;15.13;4.32;;;0.80;99.90;;;;;;5055274;28;20085;-46
2021/03/08 08:00:12;;;;;;;10.85;3.28;;;0.90;99.90;;;;;;5057949;28;20051;-45
2021/03/08 08:02:38;;;;;;;8.32;3.40;;;0.90;99.90;;;;;;5048445;28;20226;-46
2021/03/08 08:05:04;;;;;;;16.50;4.72;;;0.90;99.90;;;;;;5054348;28;20032;-46
2021/03/08 08:07:32;;;;;;;12.05;4.20;;;1.00;99.90;;;;;;5061165;28;20025;-46
2021/03/08 08:10:04;;;;;;;10.45;4.25;;;1.00;99.90;;;;;;5047643;28;20044;-49
2021/03/08 08:12:33;;;;;;;10.85;3.97;;;1.10;99.90;;;;;;5050879;28;20485;-46
2021/03/08 08:15:01;;;;;;;6.22;3.03;;;1.10;99.90;;;;;;5048132;28;20029;-46
2021/03/08 08:17:29;;;;;;;11.18;3.15;;;1.20;99.90;;;;;;5046880;28;20040;-46
2021/03/08 08:19:55;;;;;;;9.85;4.80;;;1.30;99.90;;;;;;5057940;28;20114;-47
2021/03/08 08:22:25;;;;;;;8.98;3.17;;;1.40;99.90;;;;;;5068000;28;20029;-47
2021/03/08 08:24:53;;;;;;;8.32;4.05;;;1.40;99.90;;;;;;5067838;28;20032;-46
2021/03/08 08:27:19;;;;;;;8.90;3.25;;;1.50;99.90;;;;;;5068321;28;20012;-48
2021/03/08 08:29:46;;;;;;;11.55;3.78;;;1.50;99.90;;;;;;5066495;28;20032;-46
2021/03/08 08:32:13;;;;;;;8.80;3.40;;;1.50;99.90;;;;;;5067554;28;20112;-46
2021/03/08 08:34:39;;;;;;;10.45;4.03;;;1.60;99.90;;;;;;5066825;28;20424;-46
2021/03/08 08:37:13;;;;;;;7.88;3.22;;;1.80;99.90;;;;;;5067451;28;20385;-46
2021/03/08 08:39:40;;;;;;;11.15;3.60;;;1.80;99.90;;;;;;5068851;28;20044;-45
2021/03/08 08:42:20;;;;;;;12.88;3.63;;;1.90;99.90;;;;;;5064688;28;20054;-49
2021/03/08 08:44:48;;;;;;;8.18;3.75;;;2.10;99.90;;;;;;5049865;28;20040;-45
2021/03/08 08:47:19;;;;;;;13.18;3.47;;;2.10;99.90;;;;;;5048348;28;20025;-46
2021/03/08 08:49:48;;;;;;;5.22;2.72;;;2.20;99.90;;;;;;5047739;28;20092;-45
2021/03/08 08:52:17;;;;;;;8.38;2.95;;;2.30;99.90;;;;;;5048614;28;20033;-49
2021/03/08 08:54:49;;;;;;;11.27;3.90;;;2.50;99.90;;;;;;5031360;28;20112;-49
2021/03/08 08:57:14;;;;;;;7.97;2.78;;;2.70;99.90;;;;;;5048370;28;20021;-47
2021/03/08 08:59:48;;;;;;;4.05;2.00;;;3.40;99.90;;;;;;5048577;28;20044;-47
2021/03/08 09:02:26;;;;;;;9.88;2.45;;;5.20;99.90;;;;;;5048226;28;20025;-47
2021/03/08 09:04:52;;;;;;;7.57;2.45;;;7.40;99.90;;;;;;5047750;28;20379;-48
2021/03/08 09:07:23;;;;;;;5.47;2.20;;;9.30;89.30;;;;;;5049543;28;20048;-48
2021/03/08 09:09:51;;;;;;;6.05;2.10;;;11.70;75.10;;;;;;5047389;28;20056;-48
2021/03/08 09:12:36;;;;;;;8.68;3.03;;;13.10;62.20;;;;;;5046954;28;20524;-47
2021/03/08 09:15:11;;;;;;;5.05;2.40;;;13.70;53.00;;;;;;5047626;28;20399;-50
2021/03/08 09:17:40;;;;;;;3.03;1.92;;;15.00;51.90;;;;;;5065170;28;20429;-48
2021/03/08 09:20:06;;;;;;;6.22;2.80;;;15.60;51.50;;;;;;5068314;28;20102;-49
2021/03/08 09:22:47;;;;;;;3.72;2.42;;;16.60;47.60;;;;;;5067970;28;20474;-50
2021/03/08 09:25:30;;;;;;;6.78;2.30;;;17.60;44.70;;;;;;5067603;28;20020;-50
2021/03/08 09:27:59;;;;;;;5.13;2.28;;;17.60;40.90;;;;;;5069011;28;20051;-50
2021/03/08 09:30:27;;;;;;;3.90;1.90;;;18.10;41.90;;;;;;5084613;28;20484;-51
2021/03/08 09:33:05;;;;;;;3.90;1.77;;;18.20;44.00;;;;;;5071192;28;20038;-51
2021/03/08 09:35:32;;;;;;;5.32;1.90;;;19.10;41.60;;;;;;5078033;28;20032;-51
2021/03/08 09:38:01;;;;;;;5.25;2.08;;;19.70;38.80;;;;;;5063811;28;20039;-52
2021/03/08 09:40:33;;;;;;;5.22;2.10;;;19.10;41.00;;;;;;5064288;28;20189;-50
2021/03/08 09:42:59;;;;;;;6.50;2.13;;;20.00;38.30;;;;;;5081232;28;20537;-51
2021/03/08 09:45:34;;;;;;;6.05;2.00;;;20.30;38.70;;;;;;5077740;28;20032;-51
2021/03/08 09:48:01;;;;;;;4.80;1.80;;;20.40;38.00;;;;;;5072899;28;20505;-50
2021/03/08 09:50:35;;;;;;;4.20;1.85;;;21.20;36.60;;;;;;5058530;28;20032;-50
2021/03/08 09:53:01;;;;;;;4.65;1.88;;;21.00;34.10;;;;;;5081533;28;20104;-50
2021/03/08 09:55:30;;;;;;;6.47;1.73;;;21.10;36.10;;;;;;5081875;28;20074;-50
2021/03/08 09:57:56;;;;;;;5.03;1.73;;;21.20;36.10;;;;;;5047904;28;20513;-50
2021/03/08 10:00:26;;;;;;;2.45;1.75;;;21.50;36.00;;;;;;5049119;28;20029;-50
2021/03/08 10:03:02;;;;;;;4.95;1.95;;;21.80;34.30;;;;;;5054502;28;20218;-48
2021/03/08 10:05:44;;;;;;;3.97;1.83;;;21.20;33.20;;;;;;5055629;28;20033;-51
2021/03/08 10:08:11;;;;;;;3.17;1.60;;;20.80;35.00;;;;;;5056883;28;20018;-48
2021/03/08 10:10:43;;;;;;;4.63;1.60;;;20.30;36.40;;;;;;5055643;28;20074;-51
2021/03/08 10:13:09;;;;;;;5.40;2.13;;;20.40;35.70;;;;;;5053245;28;20394;-51
2021/03/08 10:15:40;;;;;;;3.13;1.77;;;20.40;37.00;;;;;;5049545;28;20025;-51
2021/03/08 10:18:05;;;;;;;2.88;1.70;;;20.70;37.10;;;;;;5047912;28;20052;-51
2021/03/08 10:20:32;;;;;;;4.28;1.38;;;21.10;33.90;;;;;;5050380;28;20374;-51
2021/03/08 10:22:59;;;;;;;3.70;1.50;;;20.90;36.70;;;;;;5052557;28;20029;-51
2021/03/08 10:25:34;;;;;;;3.08;1.55;;;21.70;33.10;;;;;;5049875;28;20047;-51
2021/03/08 10:28:04;;;;;;;3.92;1.35;;;21.80;34.80;;;;;;5051731;28;20045;-52
2021/03/08 10:30:32;;;;;;;2.80;1.30;;;21.80;32.10;;;;;;5050877;28;20453;-51
2021/03/08 10:33:05;;;;;;;3.70;1.40;;;22.10;32.30;;;;;;5069537;28;20170;-51
2021/03/08 10:35:34;;;;;;;2.63;1.25;;;22.40;30.20;;;;;;5070794;28;20020;-51
2021/03/08 10:38:04;;;;;;;1.95;1.30;;;22.70;30.10;;;;;;5069927;28;20025;-51
2021/03/08 10:40:30;;;;;;;;;;;22.50;29.70;;;;;;5070202;28;20029;-51
2021/03/08 10:43:00;;;;;;;1.67;1.33;;;22.00;29.00;;;;;;5059265;28;20346;-52
2021/03/08 10:45:26;;;;;;;7.13;1.30;;;21.90;29.10;;;;;;5050593;28;20025;-51
2021/03/08 10:48:10;;;;;;;4.03;1.30;;;22.30;29.10;;;;;;5050619;28;20091;-51
2021/03/08 10:50:44;;;;;;;3.30;1.40;;;21.50;30.40;;;;;;5067515;28;20031;-51
2021/03/08 10:53:11;;;;;;;3.60;1.17;;;22.00;31.30;;;;;;5070916;28;20060;-51
2021/03/08 10:55:37;;;;;;;2.35;1.25;;;21.20;31.30;;;;;;5067090;28;20029;-51
2021/03/08 10:58:03;;;;;;;1.17;0.90;;;21.80;31.40;;;;;;5049551;28;20414;-50
2021/03/08 11:00:31;;;;;;;2.17;1.00;;;22.50;28.60;;;;;;5051443;28;20024;-51
2021/03/08 11:02:56;;;;;;;3.92;1.13;;;22.60;28.40;;;;;;5050473;28;20033;-50
2021/03/08 11:05:23;;;;;;;2.58;0.80;;;21.90;27.20;;;;;;5048630;28;20437;-50
2021/03/08 11:07:49;;;;;;;2.08;1.23;;;21.50;27.70;;;;;;5050836;28;20071;-51
2021/03/08 11:10:16;;;;;;;3.75;1.88;;;21.60;29.30;;;;;;5053779;28;20482;-51
2021/03/08 11:12:42;;;;;;;5.93;2.13;;;21.60;28.80;;;;;;5052360;28;20053;-51
2021/03/08 11:15:08;;;;;;;3.53;1.63;;;21.90;28.70;;;;;;5047653;28;20462;-50
2021/03/08 11:17:35;;;;;;;5.60;1.88;;;21.70;28.00;;;;;;5050329;28;20128;-51
2021/03/08 11:20:18;;;;;;;3.22;1.35;;;21.30;29.30;;;;;;5057364;28;20367;-50
2021/03/08 11:22:54;;;;;;;3.30;1.08;;;21.50;29.20;;;;;;5049728;28;20585;-52
2021/03/08 11:25:39;;;;;;;3.58;1.30;;;21.50;29.40;;;;;;5061171;28;20059;-51
2021/03/08 11:28:12;;;;;;;2.28;1.05;;;21.60;28.00;;;;;;5049090;28;20024;-48
2021/03/08 11:30:59;;;;;;;2.25;1.10;;;21.30;29.50;;;;;;5052780;28;20025;-48
2021/03/08 11:33:34;;;;;;;1.38;0.88;;;20.80;29.30;;;;;;5057140;28;20051;-48
2021/03/08 11:36:00;;;;;;;2.22;1.02;;;20.20;29.50;;;;;;5050590;28;20028;-49
2021/03/08 11:38:26;;;;;;;3.08;1.23;;;20.40;30.20;;;;;;5061287;28;20414;-52
2021/03/08 11:40:52;;;;;;;4.72;1.50;;;21.00;28.60;;;;;;5055792;28;20041;-52
2021/03/08 11:43:20;;;;;;;1.52;0.98;;;20.20;29.50;;;;;;5053946;28;20453;-52
2021/03/08 11:45:51;;;;;;;2.78;1.00;;;20.70;32.40;;;;;;5057592;28;20382;-52
2021/03/08 11:48:22;;;;;;;2.05;1.08;;;21.30;29.30;;;;;;5058271;28;20048;-51
2021/03/08 11:50:49;;;;;;;5.25;1.25;;;21.50;29.70;;;;;;5057545;28;20044;-51
2021/03/08 11:53:15;;;;;;;1.55;0.90;;;21.20;28.90;;;;;;5058863;28;20029;-52
2021/03/08 11:55:40;;;;;;;3.40;1.00;;;21.50;28.50;;;;;;5059209;28;20070;-52
2021/03/08 11:58:07;;;;;;;1.85;0.80;;;21.10;29.40;;;;;;5063745;28;20419;-52
2021/03/08 12:00:33;;;;;;;2.63;1.20;;;20.90;30.00;;;;;;5052317;28;20040;-52
2021/03/08 12:02:59;;;;;;;2.58;1.13;;;21.30;27.90;;;;;;5049044;28;20029;-50
2021/03/08 12:05:24;;;;;;;2.97;1.20;;;20.80;29.10;;;;;;5048982;28;20033;-50
2021/03/08 12:07:50;;;;;;;1.63;1.40;;;20.70;29.20;;;;;;5050846;28;20550;-51
2021/03/08 12:10:16;;;;;;;1.40;0.90;;;20.50;29.30;;;;;;5055526;28;20479;-51
2021/03/08 12:12:42;;;;;;;1.33;0.90;;;20.20;29.90;;;;;;5057571;28;20028;-51
2021/03/08 12:15:11;;;;;;;3.03;1.50;;;19.80;29.30;;;;;;5058651;28;20074;-51
2021/03/08 12:17:37;;;;;;;1.23;0.90;;;20.20;29.50;;;;;;5052332;28;20103;-51
2021/03/08 12:20:05;;;;;;;0.98;0.70;;;20.30;29.40;;;;;;5062079;28;20028;-51
2021/03/08 12:22:30;;;;;;;2.88;0.73;;;20.50;29.40;;;;;;5055732;28;20101;-51
2021/03/08 12:24:56;;;;;;;1.67;0.95;;;20.70;29.00;;;;;;5048696;28;20553;-48
2021/03/08 12:27:21;;;;;;;1.67;0.90;;;20.30;28.40;;;;;;5068749;28;20021;-47
2021/03/08 12:29:47;;;;;;;2.08;1.10;;;19.30;30.10;;;;;;5065688;28;20032;-49
2021/03/08 12:32:13;;;;;;;1.95;0.80;;;18.80;32.10;;;;;;5067477;28;20191;-49
2021/03/08 12:34:38;;;;;;;2.78;1.15;;;19.00;30.10;;;;;;5068345;28;20033;-47
2021/03/08 12:37:04;;;;;;;1.35;0.95;;;18.70;31.40;;;;;;5068244;28;20104;-48
2021/03/08 12:39:29;;;;;;;2.85;1.05;;;18.10;33.50;;;;;;5059319;28;20032;-48
2021/03/08 12:41:55;;;;;;;4.05;2.05;;;18.00;32.30;;;;;;5049927;28;20241;-47
2021/03/08 12:44:21;;;;;;;3.90;1.17;;;18.00;32.60;;;;;;5053119;28;20221;-48
2021/03/08 12:46:48;;;;;;;5.03;1.30;;;18.20;31.90;;;;;;5046421;28;20032;-47
2021/03/08 12:49:13;;;;;;;2.20;1.00;;;17.50;32.10;;;;;;5056000;28;20063;-48
2021/03/08 12:51:38;;;;;;;1.98;1.10;;;17.00;32.20;;;;;;5068683;28;20048;-48
2021/03/08 12:54:04;;;;;;;3.45;1.40;;;16.50;33.70;;;;;;5068752;28;20024;-47
2021/03/08 12:56:29;;;;;;;2.88;1.60;;;16.00;33.80;;;;;;5068234;28;20082;-48